Time;durP1;ratioP1;P1;durP2;ratioP2;P2;SDS_P1;SDS_P2;PMS_P1;PMS_P2;Temp;Humidity;BMP_temperature;BMP_pressure;BME280_temperature;BME280_humidity;BME280_pressure;Samples;Min_cycle;Max_cycle;Signal;HPM_P1;HPM_P2
2022/02/04 00:05:35;;;;;;;6.70;5.77;;;6.70;82.80;;;5.25;80.95;97703.56;5101467;27;20890;-71
2022/02/04 00:08:18;;;;;;;7.10;6.40;;;6.60;82.80;;;5.30;80.26;97692.28;5083688;28;20461;-69
2022/02/04 00:22:09;;;;;;;7.93;7.13;;;6.50;83.10;;;5.24;80.77;97719.81;5075952;28;20844;-68
2022/02/04 00:24:36;;;;;;;6.30;5.70;;;6.60;83.30;;;5.10;81.91;97717.00;5083618;28;20589;-69
2022/02/04 00:27:08;;;;;;;9.30;7.93;;;6.50;83.40;;;5.15;81.28;97721.75;5079433;28;20546;-70
2022/02/04 00:29:44;;;;;;;7.40;6.50;;;6.50;83.70;;;5.18;81.38;97720.56;5095217;28;20523;-69
2022/02/04 00:32:12;;;;;;;8.67;7.77;;;6.50;83.50;;;5.08;81.63;97726.22;5091865;28;20467;-73
2022/02/04 00:34:44;;;;;;;9.50;8.50;;;6.50;83.60;;;5.11;81.26;97725.84;5082902;28;20448;-70
2022/02/04 00:37:24;;;;;;;9.97;8.03;;;6.50;83.90;;;5.16;80.82;97723.44;5077853;28;20951;-72
2022/02/04 00:39:56;;;;;;;10.73;8.17;;;6.50;83.60;;;4.88;80.99;97683.13;5083815;28;20498;-69
2022/02/04 00:42:23;;;;;;;9.40;8.20;;;6.50;83.50;;;5.20;81.58;97729.25;5073144;28;20486;-71
2022/02/04 00:44:58;;;;;;;11.57;8.90;;;6.50;83.60;;;5.14;81.54;97735.34;5081779;28;20461;-70
2022/02/04 00:47:28;;;;;;;9.23;8.33;;;6.50;83.90;;;5.23;81.05;97731.53;5076328;28;20448;-70
2022/02/04 00:50:02;;;;;;;11.00;8.90;;;6.50;83.80;;;5.04;81.81;97736.47;5085553;28;20455;-69
2022/02/04 00:52:40;;;;;;;11.43;9.87;;;6.40;84.00;;;4.97;82.43;97727.53;5091148;28;20469;-70
2022/02/04 00:55:22;;;;;;;11.93;9.40;;;6.40;84.80;;;4.96;83.52;97725.88;5077714;28;20459;-70
2022/02/04 01:06:18;;;;;;;10.50;9.40;;;6.40;85.00;;;5.00;83.62;97737.88;5080194;28;20463;-68
2022/02/04 01:13:09;;;;;;;13.23;11.83;;;6.40;87.40;;;5.01;85.56;97741.38;5082759;28;20438;-70
2022/02/04 01:26:02;;;;;;;17.43;13.30;;;6.10;92.70;;;4.64;89.87;97741.31;5079473;28;20452;-72
2022/02/04 01:28:29;;;;;;;18.90;13.30;;;6.10;93.10;;;4.81;89.01;97729.41;5079719;28;20523;-69
2022/02/04 01:30:57;;;;;;;16.23;12.90;;;6.10;93.70;;;4.85;89.40;97731.69;5090206;28;20492;-68
2022/02/04 01:33:24;;;;;;;15.57;12.73;;;6.10;93.30;;;4.80;89.45;97725.06;5074229;28;20472;-69
2022/02/04 01:35:53;;;;;;;17.97;12.00;;;6.10;93.00;;;4.68;88.63;97724.66;5081367;28;20477;-70
2022/02/04 01:38:20;;;;;;;16.53;12.30;;;6.10;92.70;;;4.79;88.76;97726.06;5081489;28;20448;-70
2022/02/04 01:40:48;;;;;;;13.60;11.27;;;6.10;92.80;;;4.82;88.95;97717.66;5090072;28;20808;-69
2022/02/04 01:43:17;;;;;;;13.30;11.43;;;6.20;92.70;;;4.86;88.47;97717.28;5088251;28;20464;-70
2022/02/04 01:45:44;;;;;;;15.17;11.47;;;6.20;92.70;;;4.51;89.53;97672.34;5084580;28;20456;-72
2022/02/04 01:48:11;;;;;;;16.23;12.10;;;6.20;93.60;;;4.87;89.09;97719.78;5099522;27;20509;-70
2022/02/04 01:50:38;;;;;;;14.30;11.90;;;6.20;93.40;;;4.80;89.39;97719.72;5102069;28;20451;-70
2022/02/04 01:53:05;;;;;;;13.47;11.00;;;6.20;92.60;;;4.75;89.20;97718.59;5097799;28;20521;-70
2022/02/04 01:55:32;;;;;;;13.27;10.83;;;6.10;93.10;;;4.69;88.95;97704.09;5081391;28;20965;-70
2022/02/04 01:58:01;;;;;;;12.73;10.50;;;6.10;92.90;;;4.91;88.49;97704.16;5080653;28;20496;-69
2022/02/04 02:00:28;;;;;;;12.10;10.70;;;6.20;93.20;;;4.96;88.08;97707.13;5087468;28;20551;-68
2022/02/04 02:02:55;;;;;;;13.93;11.47;;;6.20;92.70;;;4.76;89.38;97707.69;5086423;28;20488;-71
2022/02/04 02:05:21;;;;;;;13.60;10.60;;;6.10;92.90;;;4.88;88.97;97712.56;5081352;28;20542;-71
2022/02/04 02:07:49;;;;;;;14.50;11.30;;;6.10;93.00;;;4.75;89.21;97703.34;5079413;28;20488;-69
2022/02/04 02:10:19;;;;;;;13.23;10.80;;;6.20;92.60;;;4.75;90.18;97705.22;5077914;28;20453;-69
2022/02/04 02:12:55;;;;;;;14.43;11.80;;;6.10;94.00;;;4.74;90.49;97712.41;5074563;28;20587;-70
2022/02/04 02:15:30;;;;;;;13.43;11.60;;;6.10;94.40;;;4.82;90.03;97717.66;5100206;27;20527;-72
2022/02/04 02:34:56;;;;;;;14.47;11.23;;;5.90;98.20;;;4.42;93.74;97727.81;5080048;28;20475;-70
2022/02/04 02:41:05;;;;;;;16.20;12.27;;;5.80;99.90;;;4.08;95.14;97683.69;5084012;28;20447;-68
2022/02/04 02:46:28;;;;;;;17.90;12.70;;;5.60;99.90;;;4.28;96.00;97739.31;5078564;28;20488;-71
2022/02/04 02:52:02;;;;;;;17.13;12.90;;;5.60;99.90;;;4.08;97.97;97737.97;5054388;28;20587;-69
2022/02/04 03:00:08;;;;;;;17.33;12.30;;;5.40;99.90;;;3.80;98.71;97751.09;5086527;28;20466;-70
2022/02/04 03:02:35;;;;;;;17.17;12.10;;;5.30;99.90;;;3.75;98.12;97745.44;5089036;28;20506;-70
2022/02/04 03:05:02;;;;;;;14.50;11.33;;;5.20;99.90;;;3.32;98.32;97687.13;5080325;28;20863;-70
2022/02/04 03:07:29;;;;;;;18.53;12.43;;;5.20;99.90;;;3.76;98.83;97745.25;5079893;28;20456;-71
2022/02/04 03:09:56;;;;;;;14.37;11.10;;;5.20;99.90;;;3.67;99.11;97741.81;5079263;28;20539;-70
2022/02/04 03:12:24;;;;;;;15.93;11.83;;;5.10;99.90;;;3.72;98.94;97749.31;5071554;28;20889;-70
2022/02/04 03:14:52;;;;;;;16.17;12.87;;;5.10;99.90;;;3.72;98.71;97748.47;5089954;28;20475;-70
2022/02/04 03:17:20;;;;;;;14.27;10.40;;;5.20;99.90;;;3.75;98.75;97753.47;5082494;28;20682;-71
2022/02/04 03:19:51;;;;;;;15.00;11.07;;;5.20;99.90;;;3.65;98.99;97737.69;5090416;28;20448;-68
2022/02/04 03:22:18;;;;;;;15.97;12.47;;;5.20;99.90;;;3.87;98.35;97752.03;5092186;28;20923;-71
2022/02/04 03:24:54;;;;;;;16.00;11.70;;;5.20;99.90;;;3.85;98.15;97754.03;5082949;28;20549;-70
2022/02/04 03:27:21;;;;;;;18.93;12.27;;;5.20;99.90;;;3.90;98.39;97754.34;5088578;28;20509;-69
2022/02/04 03:30:03;;;;;;;18.17;12.50;;;5.30;99.90;;;3.99;97.56;97748.94;5091500;28;20466;-69
2022/02/04 03:32:30;;;;;;;15.63;12.40;;;5.30;99.90;;;3.95;96.93;97743.94;5093109;28;20488;-71
2022/02/04 03:34:57;;;;;;;14.23;11.40;;;5.30;99.90;;;4.00;97.23;97756.78;5085062;28;20553;-72
2022/02/04 03:37:24;;;;;;;15.63;12.10;;;5.30;99.90;;;4.08;97.47;97737.97;5085148;28;20455;-70
2022/02/04 03:39:51;;;;;;;16.77;11.93;;;5.40;99.90;;;3.92;96.67;97746.97;5090118;28;20451;-68
2022/02/04 03:42:18;;;;;;;16.33;11.83;;;5.40;99.90;;;3.88;97.11;97752.84;5093702;28;20437;-70
2022/02/04 03:44:45;;;;;;;15.57;12.70;;;5.30;99.90;;;3.99;96.72;97752.44;5090605;28;20868;-69
2022/02/04 03:47:13;;;;;;;16.30;12.23;;;5.30;99.90;;;4.11;96.91;97756.34;5081336;28;20547;-68
2022/02/04 03:49:41;;;;;;;15.30;11.70;;;5.40;99.90;;;4.02;96.54;97759.25;5087237;28;20452;-69
2022/02/04 03:52:08;;;;;;;15.40;11.73;;;5.40;99.90;;;4.08;96.61;97763.91;5098005;28;20443;-69
2022/02/04 03:54:35;;;;;;;12.70;9.70;;;5.40;99.90;;;4.01;96.06;97765.63;5084140;28;20468;-68
2022/02/04 03:57:01;;;;;;;15.80;11.33;;;5.40;99.90;;;3.93;96.25;97762.00;5084464;28;21056;-69
2022/02/04 03:59:29;;;;;;;11.63;9.97;;;5.30;99.90;;;3.86;95.09;97757.56;5090123;28;20455;-69
2022/02/04 04:01:56;;;;;;;12.83;10.30;;;5.30;99.90;;;3.76;95.58;97757.81;5096677;28;20449;-69
2022/02/04 04:04:29;;;;;;;13.80;9.80;;;5.20;99.90;;;3.92;95.35;97755.00;5081011;28;20571;-70
2022/02/04 04:06:58;;;;;;;13.47;10.47;;;5.30;99.90;;;3.77;94.52;97712.16;5080537;28;20454;-70
2022/02/04 04:09:25;;;;;;;13.27;10.07;;;5.40;99.90;;;4.08;94.67;97759.38;5084466;28;20783;-69
2022/02/04 04:11:52;;;;;;;13.60;10.63;;;5.40;99.90;;;4.06;94.16;97771.28;5113098;28;20436;-68
2022/02/04 04:14:19;;;;;;;14.60;10.23;;;5.40;99.90;;;4.15;93.66;97770.19;5086994;28;20460;-70
2022/02/04 04:16:47;;;;;;;14.37;10.90;;;5.40;99.90;;;4.00;93.55;97753.25;5081592;28;20468;-70
2022/02/04 04:19:14;;;;;;;12.83;9.87;;;5.50;99.90;;;4.01;93.37;97773.63;5085103;28;20904;-69
2022/02/04 04:21:43;;;;;;;14.50;10.90;;;5.40;99.90;;;4.14;93.71;97784.56;5095329;28;20472;-68
2022/02/04 04:24:10;;;;;;;13.47;9.83;;;5.50;99.10;;;4.16;93.10;97781.72;5083674;28;20996;-71
2022/02/04 04:26:40;;;;;;;12.47;9.10;;;5.50;99.20;;;4.27;92.76;97785.78;5088270;28;20534;-70
2022/02/04 04:29:07;;;;;;;12.53;9.17;;;5.50;97.40;;;4.23;92.67;97775.47;5083448;28;20650;-69
2022/02/04 04:31:34;;;;;;;13.30;10.17;;;5.60;97.00;;;4.23;92.67;97783.50;5075916;28;20460;-69
2022/02/04 04:34:02;;;;;;;12.80;10.17;;;5.60;96.90;;;4.11;93.25;97779.56;5100264;27;20562;-72
2022/02/04 04:36:29;;;;;;;11.30;9.10;;;5.50;97.70;;;4.15;93.23;97777.38;5085118;28;20540;-71
2022/02/04 04:39:06;;;;;;;12.73;9.60;;;5.50;98.30;;;4.21;93.32;97780.16;5088315;28;20452;-71
2022/02/04 04:41:45;;;;;;;11.80;9.50;;;5.50;98.30;;;4.14;92.83;97787.22;5096060;28;20779;-70
2022/02/04 04:44:47;;;;;;;11.80;8.73;;;5.50;97.20;;;4.29;92.26;97781.09;5083693;28;20456;-70
2022/02/04 05:26:03;;;;;;;12.57;10.40;;;5.50;95.80;;;4.23;91.66;97815.59;5081588;28;20476;-69
2022/02/04 05:28:43;;;;;;;12.70;9.40;;;5.60;95.60;;;4.27;91.80;97821.41;5084328;28;20486;-70
2022/02/04 05:31:10;;;;;;;12.90;10.00;;;5.60;95.10;;;4.21;92.54;97820.28;5105044;28;20790;-70
2022/02/04 05:33:37;;;;;;;14.63;10.43;;;5.60;96.10;;;4.09;92.97;97813.69;5077592;28;20538;-70
2022/02/04 05:36:07;;;;;;;14.90;10.90;;;5.50;97.40;;;4.03;93.56;97801.88;5091307;28;20506;-69
2022/02/04 05:38:35;;;;;;;13.83;10.20;;;5.50;98.40;;;3.95;93.63;97810.78;5072662;28;20722;-70
2022/02/04 05:41:02;;;;;;;12.83;10.40;;;5.40;98.60;;;3.95;94.70;97813.44;5106774;28;20838;-67
2022/02/04 05:43:34;;;;;;;14.50;10.37;;;5.40;99.90;;;3.95;94.36;97802.75;5089241;28;20473;-70
2022/02/04 05:46:04;;;;;;;11.83;9.30;;;5.40;99.90;;;4.01;94.13;97811.06;5077281;28;20465;-68
2022/02/04 05:48:35;;;;;;;12.57;10.30;;;5.40;99.90;;;3.95;94.27;97802.75;5079029;28;20463;-70
2022/02/04 05:53:53;;;;;;;12.80;9.37;;;5.40;99.90;;;4.10;93.99;97810.00;5076269;28;20468;-69
2022/02/04 05:56:29;;;;;;;13.57;10.03;;;5.40;99.90;;;4.12;93.43;97805.31;5080083;28;20466;-73
2022/02/04 05:59:05;;;;;;;11.50;8.43;;;5.50;99.90;;;4.13;92.99;97811.50;5094342;28;20558;-72
2022/02/04 06:01:44;;;;;;;10.80;8.40;;;5.50;97.50;;;4.14;91.00;97808.63;5092957;28;20575;-72
2022/02/04 06:04:26;;;;;;;9.63;7.10;;;5.50;95.20;;;4.11;91.20;97812.50;5076785;28;20443;-71
2022/02/04 06:22:07;;;;;;;12.63;9.03;;;5.30;97.40;;;3.90;93.59;97837.22;5111558;28;20793;-72
2022/02/04 06:23:43;;;;;;;10.77;9.00;;;5.50;99.30;;;4.13;91.31;97833.72;5093014;28;20500;-79
2022/02/04 06:26:10;;;;;;;14.27;9.70;;;5.50;94.90;;;4.03;90.65;97835.81;5095286;28;20443;-78
2022/02/04 06:28:38;;;;;;;12.70;9.90;;;5.40;94.40;;;4.16;91.54;97849.38;5110448;28;20463;-78
2022/02/04 06:31:06;;;;;;;13.90;9.83;;;5.50;95.40;;;3.99;90.86;97837.16;5111073;28;20436;-79
2022/02/04 06:33:34;;;;;;;11.47;8.83;;;5.40;94.00;;;3.86;92.00;97835.06;5094252;28;21045;-78
2022/02/04 06:36:01;;;;;;;14.20;10.50;;;5.20;96.90;;;3.83;92.93;97834.41;5110230;28;20468;-77
2022/02/04 06:38:28;;;;;;;14.10;10.20;;;5.20;97.10;;;3.81;92.18;97836.44;5093307;28;20424;-79
2022/02/04 06:40:55;;;;;;;11.63;9.00;;;5.20;96.40;;;3.67;90.88;97832.66;5093774;28;20927;-78
2022/02/04 06:43:22;;;;;;;12.90;9.40;;;5.10;94.40;;;3.61;92.53;97844.06;5110409;28;20468;-79
2022/02/04 06:45:49;;;;;;;12.63;9.97;;;5.00;95.70;;;3.49;91.95;97832.94;5092826;28;20442;-79
2022/02/04 06:48:18;;;;;;;11.70;9.13;;;4.90;95.40;;;3.62;91.31;97839.53;5109997;28;20474;-77
2022/02/04 06:50:44;;;;;;;21.40;11.90;;;5.00;95.70;;;3.65;92.06;97833.88;5092344;28;20928;-72
2022/02/04 06:53:12;;;;;;;12.10;9.40;;;5.00;95.80;;;3.71;91.14;97829.63;5093578;28;20460;-76
2022/02/04 06:55:39;;;;;;;11.40;9.20;;;5.10;94.90;;;3.74;91.72;97832.78;5093685;28;20444;-73
2022/02/04 06:58:07;;;;;;;13.33;9.70;;;5.10;95.30;;;3.84;91.52;97824.53;5093350;28;20973;-76
2022/02/04 07:00:34;;;;;;;11.10;8.90;;;5.20;95.30;;;3.75;90.48;97830.97;5093374;28;20527;-75
2022/02/04 07:03:01;;;;;;;11.77;9.20;;;5.20;93.90;;;4.08;91.14;97841.44;5109222;28;20805;-75
2022/02/04 07:05:38;;;;;;;12.90;11.50;;;5.30;95.10;;;4.14;89.64;97853.28;5109403;28;20470;-75
2022/02/04 07:08:10;;;;;;;12.70;9.53;;;5.40;93.90;;;3.91;89.17;97806.81;5094094;28;20903;-74
2022/02/04 07:10:54;;;;;;;11.53;9.37;;;5.50;93.20;;;3.77;89.23;97783.50;5093102;28;20784;-74
2022/02/04 07:13:25;;;;;;;11.13;9.60;;;5.60;92.60;;;4.40;89.67;97852.91;5093389;28;20907;-73
2022/02/04 07:15:56;;;;;;;11.57;8.80;;;5.60;94.40;;;4.42;88.48;97864.25;5092699;28;20794;-81
2022/02/04 07:21:09;;;;;;;12.57;9.13;;;5.80;91.70;;;4.33;87.33;97868.00;5092680;28;20467;-74
2022/02/04 07:23:38;;;;;;;12.77;9.70;;;5.70;91.00;;;4.10;87.99;97842.94;5093890;28;20509;-77
2022/02/04 07:26:06;;;;;;;13.10;9.20;;;5.70;91.20;;;3.89;89.06;97851.59;5093715;28;20428;-77
2022/02/04 07:28:33;;;;;;;12.67;9.10;;;5.50;92.10;;;4.20;88.70;97860.56;5094842;28;20876;-76
2022/02/04 07:31:01;;;;;;;11.67;9.83;;;5.50;92.80;;;4.40;87.41;97860.91;5094932;28;20436;-76
2022/02/04 07:33:40;;;;;;;10.80;9.10;;;5.70;91.70;;;4.53;86.91;97869.19;5120494;28;20455;-76
2022/02/04 07:41:38;;;;;;;12.33;8.63;;;5.80;91.30;;;4.54;86.37;97870.00;5092328;28;20428;-77
2022/02/04 07:44:06;;;;;;;9.73;7.83;;;5.90;90.80;;;4.73;86.44;97863.31;5093970;28;20436;-76
2022/02/04 07:46:34;;;;;;;12.30;9.27;;;6.00;90.30;;;4.38;86.05;97870.97;5093362;28;20498;-76
2022/02/04 07:49:01;;;;;;;11.43;9.43;;;5.90;89.70;;;4.36;86.90;97857.75;5093681;28;20440;-79
2022/02/04 07:51:29;;;;;;;14.43;9.93;;;5.80;90.50;;;4.20;88.14;97856.06;5093738;28;20984;-77
2022/02/04 07:53:56;;;;;;;10.53;8.10;;;5.60;91.40;;;4.10;87.68;97856.31;5093654;28;20562;-77
2022/02/04 07:56:24;;;;;;;11.80;8.57;;;5.60;91.30;;;4.21;87.68;97862.22;5092232;28;20481;-77
2022/02/04 07:59:00;;;;;;;11.83;9.00;;;5.60;91.60;;;4.19;88.16;97859.75;5110383;28;20446;-77
2022/02/04 08:01:30;;;;;;;12.27;9.50;;;5.60;91.10;;;4.24;88.35;97859.19;5112806;28;20930;-76
2022/02/04 08:04:07;;;;;;;10.10;8.90;;;5.60;91.50;;;4.28;88.06;97860.53;5113148;28;20435;-77
2022/02/04 08:06:40;;;;;;;12.00;8.73;;;5.70;91.10;;;4.53;86.11;97858.47;5109559;28;20424;-77
2022/02/04 08:09:16;;;;;;;10.17;8.80;;;5.80;90.40;;;4.51;86.28;97860.50;5096746;28;20455;-76
2022/02/04 08:12:13;;;;;;;10.37;8.50;;;5.90;90.10;;;4.63;86.20;97852.84;5113087;28;20432;-77
2022/02/04 08:14:54;;;;;;;10.80;7.97;;;6.00;89.90;;;4.93;84.86;97849.41;5094454;28;20468;-77
2022/02/04 08:20:30;;;;;;;9.03;6.60;;;6.30;86.70;;;5.03;83.02;97847.28;5096327;28;20739;-78
2022/02/04 08:54:03;;;;;;;7.10;5.30;;;6.80;83.10;;;5.36;80.83;97878.22;4997379;28;20503;-74
2022/02/04 08:56:42;;;;;;;6.23;4.90;;;6.70;83.10;;;5.48;80.75;97878.59;4979070;28;20440;-75
2022/02/04 08:59:16;;;;;;;5.97;5.00;;;6.80;83.60;;;5.33;82.22;97883.97;5044267;28;20457;-73
2022/02/04 09:01:52;;;;;;;4.97;4.10;;;6.70;84.50;;;5.58;80.87;97875.63;5075997;28;20885;-76
2022/02/04 09:04:28;;;;;;;5.70;4.27;;;6.80;83.60;;;5.34;79.99;97824.00;5074623;28;20467;-75
2022/02/04 09:07:02;;;;;;;5.70;3.87;;;6.90;83.40;;;5.68;79.73;97870.81;5075430;28;20429;-73
2022/02/04 09:09:46;;;;;;;4.70;3.20;;;7.00;82.90;;;5.66;79.19;97841.50;5076003;28;20443;-73
2022/02/04 09:16:50;;;;;;;5.10;4.03;;;7.10;82.70;;;5.51;79.50;97865.66;5075360;28;20905;-75
2022/02/04 09:23:37;;;;;;;4.57;3.80;;;6.90;83.70;;;6.01;80.03;97865.03;5074924;28;20490;-75
2022/02/04 09:26:07;;;;;;;4.57;4.00;;;7.20;83.40;;;5.59;81.51;97851.31;5074993;28;20447;-75
2022/02/04 09:28:36;;;;;;;5.00;3.50;;;7.10;83.50;;;6.12;80.04;97869.03;5074822;28;20444;-73
2022/02/04 09:31:04;;;;;;;3.53;3.23;;;7.30;83.30;;;6.13;77.86;97862.66;5074732;28;20433;-73
2022/02/04 09:33:32;;;;;;;3.10;2.80;;;7.40;81.80;;;6.07;78.14;97861.59;5074803;28;20474;-74
2022/02/04 09:35:59;;;;;;;3.60;2.93;;;7.50;81.70;;;6.10;78.17;97855.00;5074458;28;21001;-73
2022/02/04 09:38:27;;;;;;;3.90;3.40;;;7.50;81.50;;;6.41;77.64;97861.91;5074283;28;20868;-76
2022/02/04 09:40:55;;;;;;;2.83;2.53;;;7.60;81.80;;;6.41;75.96;97836.94;5074908;28;20441;-75
2022/02/04 09:43:22;;;;;;;3.70;3.37;;;7.70;80.40;;;6.05;77.52;97849.38;5074613;28;20520;-75
2022/02/04 09:45:52;;;;;;;3.20;2.90;;;7.60;80.70;;;6.42;76.92;97855.50;5073289;28;20818;-75
2022/02/04 09:48:19;;;;;;;4.20;3.20;;;7.60;80.80;;;6.51;76.62;97854.38;5075322;28;20444;-75
2022/02/04 09:50:49;;;;;;;3.20;2.90;;;7.70;80.70;;;6.18;77.06;97843.31;5072780;28;20441;-74
2022/02/04 10:07:28;;;;;;;3.60;3.30;;;7.60;79.30;;;6.32;76.17;97833.56;5074441;28;20536;-73
2022/02/04 10:10:38;;;;;;;3.90;3.20;;;7.70;79.90;;;6.51;75.04;97846.31;5074548;28;20462;-73
2022/02/04 10:16:02;;;;;;;3.67;3.37;;;7.70;79.60;;;6.36;75.98;97845.56;5060940;28;20560;-74
2022/02/04 10:18:34;;;;;;;3.33;2.67;;;7.70;79.80;;;6.39;76.99;97837.13;5075660;28;20432;-73
2022/02/04 10:21:05;;;;;;;3.60;2.50;;;7.70;80.40;;;6.30;76.65;97836.41;5077639;28;20438;-75
2022/02/04 10:23:50;;;;;;;3.30;2.93;;;7.70;80.30;;;6.10;77.78;97836.22;5082247;28;20511;-72
2022/02/04 10:26:18;;;;;;;3.57;3.23;;;7.40;80.40;;;6.07;77.67;97840.13;5091269;28;20436;-73
2022/02/04 10:28:46;;;;;;;6.20;2.97;;;7.40;80.60;;;6.23;77.03;97833.69;5108193;28;20447;-74
2022/02/04 10:31:20;;;;;;;3.20;2.90;;;7.50;80.70;;;6.04;77.40;97831.63;5082045;28;20448;-75
2022/02/04 10:33:59;;;;;;;2.70;2.50;;;7.50;80.40;;;6.37;76.00;97825.75;5076046;28;20464;-73
2022/02/04 10:36:48;;;;;;;4.07;3.37;;;7.60;80.10;;;6.55;75.89;97816.38;5083347;28;20901;-76
2022/02/04 10:39:37;;;;;;;3.57;3.00;;;7.70;80.00;;;6.97;73.85;97808.41;5076543;28;20544;-75
2022/02/04 10:42:19;;;;;;;3.30;2.80;;;8.10;79.10;;;6.94;72.42;97802.41;5090675;28;20469;-73
2022/02/04 10:45:01;;;;;;;2.90;2.70;;;8.20;77.80;;;7.18;71.98;97791.38;5078784;28;20436;-72
2022/02/04 10:47:47;;;;;;;3.10;2.80;;;8.40;77.70;;;7.05;71.97;97790.31;5062564;28;20811;-70
2022/02/04 10:59:25;;;;;;;1.83;1.67;;;8.80;76.20;;;7.26;69.62;97769.72;5093075;28;20509;-74
2022/02/04 11:02:12;;;;;;;3.10;2.00;;;8.70;75.40;;;7.27;68.81;97782.13;5093850;28;20440;-75
2022/02/04 11:04:52;;;;;;;2.40;2.20;;;8.60;74.50;;;7.04;69.52;97729.50;5093297;28;20432;-74
2022/02/04 11:07:47;;;;;;;2.40;2.20;;;8.60;75.00;;;7.45;70.29;97767.31;5095083;28;20543;-78
2022/02/04 11:10:27;;;;;;;3.03;2.57;;;8.70;75.60;;;7.42;69.82;97756.97;5078268;28;20461;-75
2022/02/04 11:35:57;;;;;;;1.50;1.40;;;8.10;74.40;;;6.72;70.40;97736.41;5096322;28;20810;-71
2022/02/04 11:53:33;;;;;;;1.80;1.67;;;8.20;74.20;;;6.77;70.69;97707.09;5093944;27;20546;-82
2022/02/04 11:56:01;;;;;;;3.10;1.30;;;8.10;74.30;;;6.57;70.83;97706.97;5050818;28;20433;-82
2022/02/04 11:58:57;;;;;;;2.70;1.70;;;7.90;74.30;;;6.49;71.24;97700.75;5052044;28;20433;-82
2022/02/04 12:01:25;;;;;;;1.83;1.47;;;7.90;74.80;;;6.20;71.93;97635.53;5067215;28;20452;-81
2022/02/04 12:04:20;;;;;;;2.20;1.77;;;7.90;75.20;;;6.72;70.71;97688.88;5051985;28;20437;-80
2022/02/04 12:06:47;;;;;;;1.50;1.40;;;7.90;75.00;;;6.70;71.04;97690.94;5067544;28;20476;-82
2022/02/04 12:09:36;;;;;;;2.20;1.60;;;7.90;74.90;;;6.40;70.33;97669.69;5070840;28;20440;-79
2022/02/04 12:12:04;;;;;;;1.40;1.20;;;7.80;74.20;;;6.30;71.20;97679.97;5070669;28;20487;-80
2022/02/04 12:14:33;;;;;;;1.30;1.20;;;7.70;74.40;;;6.36;71.09;97674.63;5068642;28;20463;-72
2022/02/04 12:17:09;;;;;;;1.60;1.50;;;7.70;74.70;;;6.43;70.29;97666.63;5069341;28;20544;-70
2022/02/04 12:19:42;;;;;;;1.67;1.10;;;7.70;74.00;;;6.52;69.61;97673.50;5068786;28;20447;-73
2022/02/04 12:22:10;;;;;;;1.60;1.50;;;7.80;73.80;;;6.52;70.27;97676.19;5069235;28;20193;-70
2022/02/04 12:24:43;;;;;;;1.60;1.50;;;7.80;73.90;;;6.36;70.70;97674.63;5070026;28;20523;-75
2022/02/04 12:27:35;;;;;;;1.90;1.40;;;7.70;73.90;;;6.26;70.41;97671.47;5070429;28;20446;-75
2022/02/04 12:30:35;;;;;;;1.50;1.30;;;7.60;73.80;;;6.24;70.73;97671.66;5068715;28;21007;-76
2022/02/04 12:33:04;;;;;;;1.77;1.57;;;7.60;74.00;;;6.11;70.63;97663.53;5069524;28;20483;-76
2022/02/04 12:35:31;;;;;;;1.20;1.10;;;7.50;73.60;;;6.09;71.24;97679.00;5085633;28;20506;-76
2022/02/04 12:37:58;;;;;;;1.63;1.50;;;7.50;74.00;;;6.18;71.33;97672.47;5067355;28;20436;-76
2022/02/04 12:40:27;;;;;;;1.50;1.20;;;7.50;74.40;;;6.31;71.19;97674.41;5070584;28;20440;-78
2022/02/04 12:42:55;;;;;;;3.15;1.60;;;7.60;74.30;;;6.43;70.55;97666.63;5085704;28;20474;-77
2022/02/04 12:45:22;;;;;;;0.90;0.90;;;7.70;74.30;;;6.51;69.96;97674.53;5085347;28;20642;-77
2022/02/04 12:47:52;;;;;;;1.40;1.30;;;7.90;73.70;;;6.40;69.69;97664.34;5070782;28;20440;-74
2022/02/04 12:50:26;;;;;;;1.70;1.47;;;7.80;73.60;;;6.57;68.72;97664.84;5069125;28;20905;-73
2022/02/04 12:52:53;;;;;;;2.90;1.00;;;7.90;73.40;;;6.37;68.70;97667.41;5069123;28;20769;-73
2022/02/04 12:55:32;;;;;;;1.50;1.40;;;7.80;72.60;;;6.31;69.48;97666.34;5054858;28;20464;-73
2022/02/04 12:58:14;;;;;;;1.57;0.70;;;7.70;73.00;;;6.21;70.02;97650.59;5079021;28;20551;-73
2022/02/04 13:07:29;;;;;;;1.67;1.43;;;7.60;73.50;;;6.26;70.39;97662.59;5051885;28;20854;-72
2022/02/04 13:09:49;;;;;;;1.60;1.10;;;7.50;73.90;;;6.05;72.05;97648.22;5048336;28;20465;-72
2022/02/04 13:12:17;;;;;;;1.43;1.20;;;7.40;74.50;;;6.21;71.87;97634.50;5034734;28;20477;-74
2022/02/04 13:14:47;;;;;;;1.40;1.27;;;7.50;75.00;;;6.38;70.81;97647.59;5043708;28;20558;-73
2022/02/04 13:17:30;;;;;;;1.20;0.90;;;7.70;74.40;;;6.63;69.92;97647.13;5043622;28;20495;-73
2022/02/04 13:19:57;;;;;;;1.37;1.00;;;7.90;74.00;;;6.80;69.66;97642.22;5049821;28;20452;-73
2022/02/04 13:22:25;;;;;;;2.77;0.70;;;8.00;73.80;;;6.84;68.96;97634.59;5053225;28;20444;-73
2022/02/04 13:25:13;;;;;;;0.80;0.63;;;8.10;73.10;;;6.77;68.41;97623.84;5045705;28;20805;-72
2022/02/04 13:28:01;;;;;;;1.00;0.90;;;8.10;72.80;;;6.98;67.54;97624.75;5043979;28;20549;-74
2022/02/04 13:30:32;;;;;;;2.03;0.97;;;8.20;72.20;;;6.97;66.99;97621.22;5065128;28;20457;-75
2022/02/04 13:32:59;;;;;;;2.23;0.87;;;8.30;71.90;;;6.70;68.77;97606.88;5050641;28;20474;-73
2022/02/04 13:35:36;;;;;;;2.67;1.00;;;8.10;72.20;;;6.76;68.39;97609.59;5046331;28;20794;-75
2022/02/04 13:38:16;;;;;;;2.97;0.90;;;8.10;72.30;;;6.96;67.76;97598.09;5048588;28;20537;-75
2022/02/04 13:41:08;;;;;;;0.90;0.80;;;8.20;72.30;;;6.96;66.80;97598.09;5055984;28;20495;-73
2022/02/04 13:43:42;;;;;;;1.33;0.90;;;8.20;71.60;;;6.84;67.38;97600.53;5055443;28;20450;-73
2022/02/04 13:46:22;;;;;;;1.97;0.73;;;8.20;71.70;;;6.94;67.24;97605.53;5054762;28;20441;-74
2022/02/04 13:49:04;;;;;;;0.70;0.67;;;8.20;71.50;;;6.62;68.19;97581.84;5055982;28;20473;-74
2022/02/04 13:51:44;;;;;;;1.13;1.03;;;8.00;71.70;;;6.85;67.49;97590.63;5054421;28;20472;-73
2022/02/04 13:54:40;;;;;;;1.27;0.90;;;8.10;71.60;;;6.76;67.79;97588.13;5055512;28;20446;-72
2022/02/04 13:57:22;;;;;;;0.87;0.87;;;8.10;71.70;;;6.73;67.64;97583.13;5055796;28;20529;-73
2022/02/04 14:00:17;;;;;;;2.03;1.20;;;8.10;71.60;;;6.77;68.01;97573.66;5053948;28;20921;-72
2022/02/04 14:02:50;;;;;;;1.10;1.00;;;8.10;72.00;;;6.57;68.06;97572.75;5055486;28;20436;-71
2022/02/04 14:05:31;;;;;;;0.63;0.63;;;8.00;71.50;;;6.50;68.13;97570.88;5053808;28;20179;-76
2022/02/04 14:08:08;;;;;;;2.77;1.43;;;7.90;71.80;;;6.50;68.68;97568.19;5055396;28;20526;-74
2022/02/04 14:10:48;;;;;;;0.83;0.80;;;7.90;72.20;;;6.54;68.88;97567.78;5054191;28;20430;-73
2022/02/04 14:13:22;;;;;;;1.07;0.97;;;7.90;72.20;;;6.39;69.46;97560.72;5054936;28;20465;-70
2022/02/04 14:15:54;;;;;;;2.27;1.13;;;7.80;72.30;;;6.28;70.00;97570.16;5069090;28;20448;-71
2022/02/04 14:18:24;;;;;;;1.10;0.90;;;7.70;72.60;;;6.38;70.13;97567.94;5055124;28;20476;-70
2022/02/04 14:20:51;;;;;;;1.00;0.90;;;7.70;72.80;;;6.31;69.71;97563.56;5053754;28;20951;-70
2022/02/04 14:23:19;;;;;;;1.17;0.97;;;7.70;72.80;;;6.32;70.08;97565.22;5054378;28;20591;-68
2022/02/04 14:25:54;;;;;;;1.30;1.20;;;7.60;73.20;;;6.52;69.72;97573.34;5054487;28;20520;-69
2022/02/04 14:28:29;;;;;;;1.30;1.00;;;7.80;73.10;;;6.37;70.06;97560.09;5069859;28;20456;-69
2022/02/04 14:31:03;;;;;;;3.33;1.37;;;7.80;73.30;;;6.36;70.62;97561.13;5054867;28;20438;-70
2022/02/04 14:36:58;;;;;;;1.40;1.30;;;7.60;73.60;;;6.09;71.99;97548.41;5132798;27;20594;-70
2022/02/04 14:51:02;;;;;;;2.23;1.40;;;7.30;73.90;;;6.14;70.99;97526.34;5129927;28;20442;-81
2022/02/04 14:53:40;;;;;;;2.00;1.17;;;7.40;73.80;;;6.05;71.53;97538.25;5122134;28;20461;-78
2022/02/04 14:59:17;;;;;;;1.67;1.20;;;7.40;73.80;;;6.12;70.77;97528.38;5113774;28;20423;-76
2022/02/04 15:01:52;;;;;;;0.93;0.93;;;7.50;73.30;;;6.14;69.85;97521.00;5112881;28;20435;-81
2022/02/04 15:04:35;;;;;;;2.30;1.50;;;7.50;73.30;;;6.14;70.06;97518.31;5112906;28;20431;-78
2022/02/04 15:07:03;;;;;;;1.07;0.87;;;7.50;73.30;;;6.25;69.87;97522.28;5113074;28;20951;-79
2022/02/04 15:09:32;;;;;;;1.63;1.00;;;7.60;73.00;;;6.18;70.33;97514.19;5127502;28;20838;-79
2022/02/04 15:11:59;;;;;;;1.43;1.23;;;7.50;73.10;;;6.03;70.33;97508.13;5128448;28;20443;-80
2022/02/04 15:14:26;;;;;;;1.40;1.03;;;7.50;72.90;;;5.93;71.09;97519.19;5111127;28;20459;-82
2022/02/04 15:16:53;;;;;;;1.97;1.13;;;7.40;73.10;;;6.02;71.00;97506.47;5112559;28;20953;-78